メインページ
METAR-TAF:

METAR-TAF

空港 :

ムルマンスク, ロシア

緯度: 68-58N, 経度: 033-03E, 海抜: 51m

現時点の気象観測

当レポートは39分前の10:00(UTC)に作成
の風 2kt
気温 -10°C
湿度 85%
気圧 1011 hPa
視程: 7000m
高度200ftの曇り
靄, 散在霧

METAR: ULMM 191000Z 17001MPS 7000 BR BCFG OVC002 M10/M12 Q1011 R31/690150 TEMPO 0300 FZFG RMK QBB060 OBST OBSC QFE751

時間: 13:39 (10:39 UTC)

予報

当レポートは2時間49分前の07:50(UTC)に作成
予報は19日の 09時(UTC)から 20日の 09時(UTC)まで有効
南東の風 4kt
視程: 1300m
高度200ftの曇り
19日の 09時(UTC)から 19日の 12時(UTC)まで一時的に
変向風 2kt
視程: 0300m
高度100ftの
着氷性の霧
19日の 1200時(UTC)から
北東の風 4kt
視程: 3100m
高度300ftの曇り
19日の 12時(UTC)から 20日の 09時(UTC)まで一時的に
変向風 2kt
視程: 0300m
高度100ftの
着氷性の霧

TAF: ULMM 190750Z 1909/2009 14002MPS 1300 BR OVC002 TEMPO 1909/1912 VRB01MPS 0300 FZFG VV001 FM191200 04002MPS 3100 BR OVC003 TEMPO 1912/2009 VRB01MPS 0300 FZFG VV001

4,000以上の空港の気象観測と天気予報(METAR報とTAF報)

利用可能な観測所は地図上に黄色い丸と赤い丸で示す。

丸の上にカーソルを重ねると観測所名を参照できる。

次にクリックすると気象観測と天気予報を参照できる。

マップの切り替え:黒色「×」印の緑ボタンをクリックして拡大、「-」印の緑ボタンをクリックして縮小、緑色の三角印をクリックして隣りの地図に切り替え


METAR-TAF: